Time;durP1;ratioP1;P1;durP2;ratioP2;P2;SDS_P1;SDS_P2;PMS_P1;PMS_P2;Temp;Humidity;BMP_temperature;BMP_pressure;BME280_temperature;BME280_humidity;BME280_pressure;Samples;Min_cycle;Max_cycle;Signal;HPM_P1;HPM_P2
2023/10/04 00:01:38;;;;;;;4.90;2.80;;;;;;;;;;7369443;19;20010;-71
2023/10/04 00:04:04;;;;;;;4.55;2.58;;;;;;;;;;7368794;19;20022;-71
2023/10/04 00:06:32;;;;;;;4.40;2.30;;;;;;;;;;7392339;19;20031;-71
2023/10/04 00:08:59;;;;;;;6.13;2.33;;;;;;;;;;7368640;19;20010;-71
2023/10/04 00:11:24;;;;;;;4.25;2.10;;;;;;;;;;7369476;19;20333;-71
2023/10/04 00:13:51;;;;;;;7.18;2.50;;;;;;;;;;7366760;19;19998;-70
2023/10/04 00:16:17;;;;;;;6.10;2.20;;;;;;;;;;7369290;19;20007;-71
2023/10/04 00:18:43;;;;;;;6.93;2.20;;;;;;;;;;7369498;19;20389;-71
2023/10/04 00:21:10;;;;;;;6.25;2.53;;;;;;;;;;7390906;19;20006;-71
2023/10/04 00:23:36;;;;;;;4.80;2.15;;;;;;;;;;7365545;19;20037;-71
2023/10/04 00:26:01;;;;;;;5.60;2.35;;;;;;;;;;7369238;19;20010;-71
2023/10/04 00:28:28;;;;;;;4.93;2.17;;;;;;;;;;7367789;19;20115;-71
2023/10/04 00:30:53;;;;;;;4.15;1.80;;;;;;;;;;7368179;19;20010;-71
2023/10/04 00:33:19;;;;;;;3.80;2.00;;;;;;;;;;7386757;19;20062;-71
2023/10/04 00:35:45;;;;;;;5.07;2.30;;;;;;;;;;7367026;19;20118;-71
2023/10/04 00:38:15;;;;;;;6.38;2.50;;;;;;;;;;7364459;19;20568;-71
2023/10/04 00:40:41;;;;;;;5.57;2.47;;;;;;;;;;7365770;19;20039;-71
2023/10/04 00:43:10;;;;;;;7.95;2.67;;;;;;;;;;7364137;19;20007;-71
2023/10/04 00:45:36;;;;;;;5.70;2.42;;;;;;;;;;7370353;19;19998;-71
2023/10/04 00:48:15;;;;;;;4.78;2.13;;;;;;;;;;7396696;19;20019;-71
2023/10/04 00:50:41;;;;;;;3.85;2.35;;;;;;;;;;7373980;19;20073;-71
2023/10/04 00:53:08;;;;;;;4.28;2.20;;;;;;;;;;7370188;19;20015;-72
2023/10/04 00:55:34;;;;;;;5.50;2.33;;;;;;;;;;7370575;19;20010;-71
2023/10/04 00:58:02;;;;;;;5.82;2.33;;;;;;;;;;7369704;19;20511;-71
2023/10/04 01:00:27;;;;;;;6.03;2.13;;;;;;;;;;7391914;19;20003;-71
2023/10/04 01:02:53;;;;;;;5.68;2.15;;;;;;;;;;7367028;19;20006;-73
2023/10/04 01:05:22;;;;;;;5.88;2.20;;;;;;;;;;7368725;19;20015;-71
2023/10/04 01:07:49;;;;;;;4.93;2.15;;;;;;;;;;7368190;19;20010;-71
2023/10/04 01:10:15;;;;;;;5.40;2.10;;;;;;;;;;7368259;19;20006;-72
2023/10/04 01:12:43;;;;;;;5.00;2.10;;;;;;;;;;7366207;19;19995;-71
2023/10/04 01:15:25;;;;;;;4.93;2.13;;;;;;;;;;7389953;19;20350;-70
2023/10/04 01:17:53;;;;;;;5.75;2.20;;;;;;;;;;7365034;19;20342;-70
2023/10/04 01:20:22;;;;;;;5.32;2.45;;;;;;;;;;7367377;19;20006;-70
2023/10/04 01:22:47;;;;;;;5.93;1.88;;;;;;;;;;7365552;19;20009;-70
2023/10/04 01:25:12;;;;;;;5.28;1.77;;;;;;;;;;7366169;19;20330;-70
2023/10/04 01:27:38;;;;;;;5.78;2.15;;;;;;;;;;7366954;19;20496;-70
2023/10/04 01:30:11;;;;;;;5.72;2.13;;;;;;;;;;7389796;19;19998;-70
2023/10/04 01:32:40;;;;;;;5.00;2.13;;;;;;;;;;7365073;19;20034;-70
2023/10/04 01:35:05;;;;;;;10.73;2.38;;;;;;;;;;7364923;19;20465;-70
2023/10/04 01:37:33;;;;;;;7.30;2.63;;;;;;;;;;7365803;19;20010;-71
2023/10/04 01:39:58;;;;;;;4.25;1.92;;;;;;;;;;7367070;19;20035;-71
2023/10/04 01:42:25;;;;;;;3.53;1.80;;;;;;;;;;7386178;19;20730;-71
2023/10/04 01:44:51;;;;;;;4.47;1.80;;;;;;;;;;7365809;19;20093;-71
2023/10/04 01:47:19;;;;;;;3.65;2.03;;;;;;;;;;7366398;19;20022;-69
2023/10/04 01:49:45;;;;;;;4.40;2.00;;;;;;;;;;7366891;19;20061;-71
2023/10/04 01:52:10;;;;;;;4.05;2.05;;;;;;;;;;7365356;19;20057;-71
2023/10/04 01:54:35;;;;;;;6.13;2.05;;;;;;;;;;7365921;19;20031;-71
2023/10/04 01:57:04;;;;;;;5.75;2.22;;;;;;;;;;7387329;19;20683;-71
2023/10/04 01:59:31;;;;;;;4.72;2.17;;;;;;;;;;7365179;19;20007;-71
2023/10/04 02:01:57;;;;;;;6.72;2.13;;;;;;;;;;7365656;19;20011;-71
2023/10/04 02:04:23;;;;;;;5.50;1.90;;;;;;;;;;7365998;19;20035;-71
2023/10/04 02:06:48;;;;;;;5.40;1.70;;;;;;;;;;7367222;19;20010;-71
2023/10/04 02:09:16;;;;;;;3.45;1.75;;;;;;;;;;7388457;19;20191;-71
2023/10/04 02:11:42;;;;;;;5.10;1.88;;;;;;;;;;7365871;19;20930;-71
2023/10/04 02:14:07;;;;;;;5.22;2.00;;;;;;;;;;7364920;19;20643;-71
2023/10/04 02:16:34;;;;;;;4.63;2.00;;;;;;;;;;7364721;19;20014;-71
2023/10/04 02:19:01;;;;;;;5.28;2.67;;;;;;;;;;7366665;19;20006;-71
2023/10/04 02:21:26;;;;;;;4.25;1.67;;;;;;;;;;7387789;19;20011;-71
2023/10/04 02:23:53;;;;;;;5.65;2.30;;;;;;;;;;7363206;19;20361;-71
2023/10/04 02:26:22;;;;;;;4.63;2.05;;;;;;;;;;7365352;19;20322;-71
2023/10/04 02:28:48;;;;;;;4.95;1.92;;;;;;;;;;7365620;19;20017;-71
2023/10/04 02:31:14;;;;;;;3.33;1.70;;;;;;;;;;7365606;19;20086;-71
2023/10/04 02:33:39;;;;;;;7.10;2.00;;;;;;;;;;7362313;19;20003;-71
2023/10/04 02:36:07;;;;;;;3.10;1.60;;;;;;;;;;7384809;19;20023;-71
2023/10/04 02:38:34;;;;;;;4.35;1.98;;;;;;;;;;7361211;19;20006;-71
2023/10/04 02:41:00;;;;;;;4.90;1.98;;;;;;;;;;7362717;19;20011;-71
2023/10/04 02:43:26;;;;;;;4.78;1.95;;;;;;;;;;7359974;19;20003;-71
2023/10/04 02:45:52;;;;;;;5.47;2.35;;;;;;;;;;7362529;19;20007;-71
2023/10/04 02:48:19;;;;;;;4.43;1.80;;;;;;;;;;7390303;19;20080;-71
2023/10/04 02:50:45;;;;;;;3.95;1.90;;;;;;;;;;7370203;19;20417;-71
2023/10/04 02:53:16;;;;;;;4.13;1.90;;;;;;;;;;7370170;19;20014;-71
2023/10/04 02:55:42;;;;;;;11.10;2.22;;;;;;;;;;7372328;19;20002;-71
2023/10/04 02:58:07;;;;;;;7.50;2.05;;;;;;;;;;7369328;19;20097;-70
2023/10/04 03:00:36;;;;;;;5.78;2.10;;;;;;;;;;7392531;19;20028;-70
2023/10/04 03:03:02;;;;;;;4.38;2.20;;;;;;;;;;7390181;19;20088;-70
2023/10/04 03:05:29;;;;;;;5.97;2.05;;;;;;;;;;7372003;19;20006;-71
2023/10/04 03:07:54;;;;;;;3.47;1.85;;;;;;;;;;7370444;19;20013;-70
2023/10/04 03:10:27;;;;;;;6.13;2.03;;;;;;;;;;7372710;19;20003;-71
2023/10/04 03:12:54;;;;;;;4.18;1.90;;;;;;;;;;7375736;19;20002;-71
2023/10/04 03:15:23;;;;;;;6.22;2.22;;;;;;;;;;7402120;19;20018;-71
2023/10/04 03:17:52;;;;;;;4.60;2.20;;;;;;;;;;7377474;19;20002;-71
2023/10/04 03:20:29;;;;;;;5.95;1.83;;;;;;;;;;7380054;19;19999;-71
2023/10/04 03:22:55;;;;;;;5.38;2.38;;;;;;;;;;7377679;19;20017;-71
2023/10/04 03:25:24;;;;;;;10.75;2.97;;;;;;;;;;7371841;19;20098;-70
2023/10/04 03:27:49;;;;;;;4.57;2.17;;;;;;;;;;7371464;19;19998;-70
2023/10/04 03:30:15;;;;;;;4.50;1.80;;;;;;;;;;7393855;19;20563;-70
2023/10/04 03:32:52;;;;;;;6.00;1.98;;;;;;;;;;7368460;19;20006;-70
2023/10/04 03:35:20;;;;;;;3.40;2.03;;;;;;;;;;7371008;19;20007;-70
2023/10/04 03:37:54;;;;;;;4.15;2.00;;;;;;;;;;7370393;19;20541;-70
2023/10/04 03:40:21;;;;;;;5.75;2.15;;;;;;;;;;7370871;19;20021;-70
2023/10/04 03:42:46;;;;;;;7.38;2.30;;;;;;;;;;7367481;19;20325;-70
2023/10/04 03:45:17;;;;;;;7.13;2.33;;;;;;;;;;7392431;19;20013;-70
2023/10/04 03:47:42;;;;;;;6.20;2.10;;;;;;;;;;7370822;19;20354;-70
2023/10/04 03:50:11;;;;;;;5.40;2.00;;;;;;;;;;7370486;19;20034;-70
2023/10/04 03:52:38;;;;;;;5.05;2.17;;;;;;;;;;7368348;19;20342;-71
2023/10/04 03:55:06;;;;;;;3.75;1.88;;;;;;;;;;7370865;19;20002;-71
2023/10/04 03:57:33;;;;;;;4.88;1.90;;;;;;;;;;7384382;19;20237;-70
2023/10/04 04:00:05;;;;;;;8.02;1.90;;;;;;;;;;7365554;19;20362;-71
2023/10/04 04:02:30;;;;;;;5.20;1.90;;;;;;;;;;7367203;19;20015;-70
2023/10/04 04:04:56;;;;;;;6.82;2.42;;;;;;;;;;7369970;19;20107;-71
2023/10/04 04:07:21;;;;;;;4.75;2.00;;;;;;;;;;7366674;19;20495;-72
2023/10/04 04:09:46;;;;;;;4.68;2.20;;;;;;;;;;7369166;19;20006;-71
2023/10/04 04:12:12;;;;;;;4.75;2.25;;;;;;;;;;7391024;19;20010;-70
2023/10/04 04:14:38;;;;;;;3.88;2.10;;;;;;;;;;7367716;19;20009;-70
2023/10/04 04:17:05;;;;;;;4.93;2.03;;;;;;;;;;7367495;19;20007;-69
2023/10/04 04:19:30;;;;;;;5.32;2.30;;;;;;;;;;7368407;19;19998;-71
2023/10/04 04:21:57;;;;;;;4.65;2.35;;;;;;;;;;7368926;19;20006;-71
2023/10/04 04:24:22;;;;;;;5.00;2.13;;;;;;;;;;7389965;19;20022;-70
2023/10/04 04:26:48;;;;;;;3.33;1.90;;;;;;;;;;7374040;19;20074;-72
2023/10/04 04:29:13;;;;;;;4.88;2.05;;;;;;;;;;7374059;19;20455;-71
2023/10/04 04:31:40;;;;;;;4.78;2.00;;;;;;;;;;7375548;19;20027;-70
2023/10/04 04:34:08;;;;;;;3.85;1.80;;;;;;;;;;7374047;19;20011;-70
2023/10/04 04:36:34;;;;;;;5.68;2.13;;;;;;;;;;7386085;19;20027;-70
2023/10/04 04:39:04;;;;;;;6.63;2.38;;;;;;;;;;7385748;19;20002;-70
2023/10/04 04:41:30;;;;;;;8.02;2.05;;;;;;;;;;7370033;19;20010;-70
2023/10/04 04:43:55;;;;;;;5.00;1.90;;;;;;;;;;7368224;19;20027;-70
2023/10/04 04:46:22;;;;;;;6.00;1.88;;;;;;;;;;7367111;19;20016;-70
2023/10/04 04:48:48;;;;;;;5.60;1.63;;;;;;;;;;7368232;19;20014;-70
2023/10/04 04:51:14;;;;;;;5.32;2.10;;;;;;;;;;7393665;19;20007;-70
2023/10/04 04:53:44;;;;;;;6.00;2.17;;;;;;;;;;7371409;19;20003;-70
2023/10/04 04:56:21;;;;;;;6.00;2.40;;;;;;;;;;7373719;19;20013;-70
2023/10/04 04:58:47;;;;;;;4.28;1.92;;;;;;;;;;7372659;19;20017;-70
2023/10/04 05:01:13;;;;;;;5.97;2.60;;;;;;;;;;7371006;19;20006;-70
2023/10/04 05:03:41;;;;;;;6.07;2.40;;;;;;;;;;7368515;19;20024;-70
2023/10/04 05:06:09;;;;;;;8.00;2.60;;;;;;;;;;7394901;19;20027;-70
2023/10/04 05:08:36;;;;;;;6.60;2.50;;;;;;;;;;7371922;19;20010;-69
2023/10/04 05:11:05;;;;;;;4.25;2.20;;;;;;;;;;7370385;19;20005;-69
2023/10/04 05:13:31;;;;;;;5.57;2.28;;;;;;;;;;7361741;19;20038;-64
2023/10/04 05:15:56;;;;;;;13.73;7.07;;;;;;;;;;7365792;19;20008;-64
2023/10/04 05:18:22;;;;;;;12.48;5.10;;;;;;;;;;7387595;19;20347;-65
2023/10/04 05:20:50;;;;;;;5.43;2.40;;;;;;;;;;7366716;19;20074;-65
2023/10/04 05:23:17;;;;;;;7.13;2.75;;;;;;;;;;7367927;19;20021;-64
2023/10/04 05:25:43;;;;;;;5.30;2.33;;;;;;;;;;7368345;19;20031;-64
2023/10/04 05:28:11;;;;;;;5.30;2.38;;;;;;;;;;7368395;19;20007;-66
2023/10/04 05:30:38;;;;;;;12.27;5.60;;;;;;;;;;7368380;19;20337;-64
2023/10/04 05:33:04;;;;;;;4.38;2.50;;;;;;;;;;7387844;19;20002;-64
2023/10/04 05:35:29;;;;;;;6.18;2.40;;;;;;;;;;7368373;19;20017;-62
2023/10/04 05:37:55;;;;;;;5.38;2.40;;;;;;;;;;7367052;19;20030;-63
2023/10/04 05:40:25;;;;;;;4.70;2.40;;;;;;;;;;7367380;19;20139;-65
2023/10/04 05:42:54;;;;;;;4.70;2.08;;;;;;;;;;7364741;19;20009;-64
2023/10/04 05:45:23;;;;;;;6.15;2.60;;;;;;;;;;7388674;19;20420;-70
2023/10/04 05:47:52;;;;;;;6.30;2.30;;;;;;;;;;7366183;19;20480;-69
2023/10/04 05:50:21;;;;;;;9.55;2.20;;;;;;;;;;7366704;19;20640;-69
2023/10/04 05:52:49;;;;;;;5.93;2.75;;;;;;;;;;7366061;19;19999;-71
2023/10/04 05:55:19;;;;;;;6.68;2.10;;;;;;;;;;7365526;19;20003;-70
2023/10/04 05:57:45;;;;;;;4.78;2.55;;;;;;;;;;7364964;19;20036;-72
2023/10/04 06:00:57;;;;;;;4.65;2.50;;;;;;;;;;7387980;19;20015;-71
2023/10/04 06:03:00;;;;;;;7.88;2.67;;;;;;;;;;7362024;19;20010;-70
2023/10/04 06:05:27;;;;;;;5.53;2.72;;;;;;;;;;7365346;19;20007;-70
2023/10/04 06:07:55;;;;;;;6.50;2.47;;;;;;;;;;7365430;19;20030;-70
2023/10/04 06:10:21;;;;;;;4.28;2.55;;;;;;;;;;7365621;19;20565;-69
2023/10/04 06:12:47;;;;;;;10.98;2.85;;;;;;;;;;7363261;19;20031;-70
2023/10/04 06:15:15;;;;;;;7.30;2.70;;;;;;;;;;7388681;19;20042;-70
2023/10/04 06:17:45;;;;;;;4.30;2.33;;;;;;;;;;7359678;19;20003;-70
2023/10/04 06:22:54;;;;;;;5.70;2.40;;;;;;;;;;7379945;19;20520;-71
2023/10/04 06:25:21;;;;;;;9.00;2.70;;;;;;;;;;7385232;19;20010;-69
2023/10/04 06:27:48;;;;;;;7.55;2.60;;;;;;;;;;7385631;19;19994;-70
2023/10/04 06:30:16;;;;;;;9.32;2.67;;;;;;;;;;7406384;19;20023;-69
2023/10/04 06:32:43;;;;;;;5.90;2.63;;;;;;;;;;7384337;19;20030;-70
2023/10/04 06:35:09;;;;;;;8.38;2.72;;;;;;;;;;7379958;19;20011;-70
2023/10/04 06:37:34;;;;;;;5.22;2.30;;;;;;;;;;7377836;19;20098;-71
2023/10/04 06:40:01;;;;;;;5.22;2.67;;;;;;;;;;7378318;19;20006;-69
2023/10/04 06:42:26;;;;;;;4.82;2.22;;;;;;;;;;7398553;19;20017;-70
2023/10/04 06:44:52;;;;;;;4.60;2.10;;;;;;;;;;7379025;19;20006;-70
2023/10/04 06:47:18;;;;;;;8.63;2.80;;;;;;;;;;7376911;19;20003;-70
2023/10/04 06:49:43;;;;;;;8.68;2.22;;;;;;;;;;7379775;19;20062;-70
2023/10/04 06:52:08;;;;;;;5.18;2.17;;;;;;;;;;7375592;19;20097;-71
2023/10/04 06:54:34;;;;;;;5.45;1.88;;;;;;;;;;7390442;19;19995;-72
2023/10/04 06:57:00;;;;;;;6.53;2.15;;;;;;;;;;7398814;19;20469;-70
2023/10/04 06:59:25;;;;;;;5.18;2.17;;;;;;;;;;7379302;19;20115;-70
2023/10/04 07:01:51;;;;;;;7.38;2.30;;;;;;;;;;7376714;19;20357;-70
2023/10/04 07:04:17;;;;;;;5.85;2.40;;;;;;;;;;7378765;19;20053;-72
2023/10/04 07:06:42;;;;;;;4.53;2.05;;;;;;;;;;7378950;19;20318;-72
2023/10/04 07:09:09;;;;;;;7.68;2.17;;;;;;;;;;7400696;19;20003;-71
2023/10/04 07:11:34;;;;;;;5.40;2.10;;;;;;;;;;7377938;19;20006;-71
2023/10/04 07:13:59;;;;;;;5.82;2.05;;;;;;;;;;7377707;19;20010;-72
2023/10/04 07:16:25;;;;;;;4.95;2.35;;;;;;;;;;7376894;19;19999;-70
2023/10/04 07:18:50;;;;;;;4.07;1.90;;;;;;;;;;7379299;19;20019;-72
2023/10/04 07:21:15;;;;;;;5.03;2.00;;;;;;;;;;7397900;19;20024;-69
2023/10/04 07:23:40;;;;;;;5.05;1.92;;;;;;;;;;7376065;19;20105;-70
2023/10/04 07:26:09;;;;;;;8.18;2.20;;;;;;;;;;7377727;19;20024;-70
2023/10/04 07:28:37;;;;;;;4.55;1.88;;;;;;;;;;7378381;19;19998;-72
2023/10/04 07:31:03;;;;;;;4.30;1.95;;;;;;;;;;7376949;19;20006;-70
2023/10/04 07:33:28;;;;;;;4.38;1.90;;;;;;;;;;7391562;19;20035;-71
2023/10/04 07:35:55;;;;;;;6.43;2.08;;;;;;;;;;7369308;19;20010;-70
2023/10/04 07:38:20;;;;;;;4.22;2.00;;;;;;;;;;7369445;19;20011;-70
2023/10/04 07:40:46;;;;;;;3.20;1.95;;;;;;;;;;7370564;19;20012;-70
2023/10/04 07:43:11;;;;;;;6.72;2.03;;;;;;;;;;7367693;19;20364;-71
2023/10/04 07:45:38;;;;;;;3.17;1.83;;;;;;;;;;7369715;19;20398;-72
2023/10/04 07:48:03;;;;;;;7.45;2.33;;;;;;;;;;7391508;19;20006;-72
2023/10/04 07:50:29;;;;;;;5.50;2.40;;;;;;;;;;7369353;19;20030;-71
2023/10/04 07:52:56;;;;;;;7.60;2.20;;;;;;;;;;7366687;19;20006;-70
2023/10/04 07:55:25;;;;;;;5.60;2.17;;;;;;;;;;7369921;19;20048;-70
2023/10/04 07:57:53;;;;;;;6.43;2.00;;;;;;;;;;7370086;19;19995;-69
2023/10/04 08:00:20;;;;;;;5.93;1.88;;;;;;;;;;7394922;19;20317;-74
2023/10/04 08:02:51;;;;;;;6.85;2.13;;;;;;;;;;7368788;19;20023;-71
2023/10/04 08:05:19;;;;;;;5.63;3.20;;;;;;;;;;7370671;19;20003;-70
2023/10/04 08:07:49;;;;;;;8.50;3.67;;;;;;;;;;7368112;19;20006;-71
2023/10/04 08:10:18;;;;;;;3.95;1.80;;;;;;;;;;7368030;19;20058;-70
2023/10/04 08:12:45;;;;;;;5.47;1.75;;;;;;;;;;7358771;19;20018;-71
2023/10/04 08:15:13;;;;;;;6.22;2.13;;;;;;;;;;7365304;19;20014;-71
2023/10/04 08:17:40;;;;;;;6.30;2.10;;;;;;;;;;7388105;19;20014;-69
2023/10/04 08:20:06;;;;;;;6.47;1.60;;;;;;;;;;7366627;19;20013;-72
2023/10/04 08:22:31;;;;;;;7.90;1.80;;;;;;;;;;7365975;19;20002;-72
2023/10/04 08:24:56;;;;;;;4.45;1.58;;;;;;;;;;7369291;19;20027;-70
2023/10/04 08:27:24;;;;;;;6.30;1.63;;;;;;;;;;7367934;19;20026;-70
2023/10/04 08:29:49;;;;;;;5.03;1.70;;;;;;;;;;7367921;19;20016;-71
2023/10/04 08:32:15;;;;;;;3.30;1.70;;;;;;;;;;7387993;19;20461;-71
2023/10/04 08:34:40;;;;;;;7.80;1.80;;;;;;;;;;7366739;19;20029;-70
2023/10/04 08:37:06;;;;;;;8.40;1.90;;;;;;;;;;7365519;19;20090;-70
2023/10/04 08:39:33;;;;;;;3.90;1.83;;;;;;;;;;7369066;19;20025;-70
2023/10/04 08:41:59;;;;;;;5.28;1.90;;;;;;;;;;7368253;19;20007;-69
2023/10/04 08:44:24;;;;;;;7.28;2.00;;;;;;;;;;7389406;19;20006;-70
2023/10/04 08:46:53;;;;;;;7.43;1.80;;;;;;;;;;7365229;19;20029;-71
2023/10/04 08:49:23;;;;;;;7.50;2.25;;;;;;;;;;7367599;19;20375;-70
2023/10/04 08:52:01;;;;;;;4.33;1.50;;;;;;;;;;7367706;19;20030;-70
2023/10/04 08:54:27;;;;;;;4.55;1.73;;;;;;;;;;7367376;19;20002;-70
2023/10/04 08:57:14;;;;;;;7.53;1.73;;;;;;;;;;7367088;19;20002;-71
2023/10/04 08:59:44;;;;;;;6.93;2.08;;;;;;;;;;7388869;19;20001;-71
2023/10/04 09:02:13;;;;;;;5.50;2.83;;;;;;;;;;7367552;19;20007;-70
2023/10/04 09:04:39;;;;;;;4.82;1.80;;;;;;;;;;7365981;19;20377;-70
2023/10/04 09:07:11;;;;;;;2.58;1.30;;;;;;;;;;7367984;19;20365;-70
2023/10/04 09:09:40;;;;;;;3.53;1.70;;;;;;;;;;7366299;19;20013;-70
2023/10/04 09:12:09;;;;;;;5.07;1.88;;;;;;;;;;7366012;19;20116;-70
2023/10/04 09:14:37;;;;;;;5.05;1.83;;;;;;;;;;7388124;19;20027;-70
2023/10/04 09:17:05;;;;;;;5.20;1.73;;;;;;;;;;7366803;19;20007;-70
2023/10/04 09:19:30;;;;;;;3.75;1.88;;;;;;;;;;7365602;19;20006;-70
2023/10/04 09:22:03;;;;;;;5.57;1.80;;;;;;;;;;7365095;19;20592;-72
2023/10/04 09:24:29;;;;;;;4.00;1.83;;;;;;;;;;7365880;19;19998;-70
2023/10/04 09:26:56;;;;;;;4.72;1.58;;;;;;;;;;7366862;19;19998;-71
2023/10/04 09:29:30;;;;;;;5.80;1.90;;;;;;;;;;7389071;19;20006;-72
2023/10/04 09:31:56;;;;;;;5.65;2.35;;;;;;;;;;7365744;19;20011;-70
2023/10/04 09:34:23;;;;;;;7.60;2.03;;;;;;;;;;7364598;19;19998;-70
2023/10/04 09:36:51;;;;;;;3.45;2.00;;;;;;;;;;7365364;19;20010;-70
2023/10/04 09:39:23;;;;;;;4.88;1.77;;;;;;;;;;7366544;19;20006;-70
2023/10/04 09:41:50;;;;;;;5.25;1.83;;;;;;;;;;7364877;19;20011;-71
2023/10/04 09:44:30;;;;;;;5.03;1.60;;;;;;;;;;7388054;19;20664;-70
2023/10/04 09:46:59;;;;;;;5.50;2.45;;;;;;;;;;7365855;19;19998;-70
2023/10/04 09:49:28;;;;;;;9.55;2.20;;;;;;;;;;7364989;19;20102;-70
2023/10/04 09:51:55;;;;;;;6.65;3.83;;;;;;;;;;7364323;19;20073;-71
2023/10/04 09:54:24;;;;;;;6.97;2.20;;;;;;;;;;7365503;19;20006;-70
2023/10/04 09:56:51;;;;;;;5.03;1.88;;;;;;;;;;7362140;19;20002;-71
2023/10/04 09:59:21;;;;;;;9.82;2.47;;;;;;;;;;7388077;19;19999;-70
2023/10/04 10:01:55;;;;;;;7.05;2.03;;;;;;;;;;7362991;19;20167;-70
2023/10/04 10:04:29;;;;;;;6.97;2.20;;;;;;;;;;7364195;19;20347;-70
2023/10/04 10:07:16;;;;;;;4.65;2.17;;;;;;;;;;7365884;19;19995;-70
2023/10/04 10:10:04;;;;;;;4.88;2.05;;;;;;;;;;7366264;19;20070;-71
2023/10/04 10:12:31;;;;;;;6.30;2.67;;;;;;;;;;7362629;19;20015;-71
2023/10/04 10:15:02;;;;;;;6.60;2.60;;;;;;;;;;7364042;19;20010;-72
2023/10/04 10:17:30;;;;;;;6.38;2.38;;;;;;;;;;7386301;19;20007;-73
2023/10/04 10:19:56;;;;;;;10.23;2.40;;;;;;;;;;7364345;19;20082;-71
2023/10/04 10:22:21;;;;;;;6.63;2.05;;;;;;;;;;7363565;19;20013;-71
2023/10/04 10:24:56;;;;;;;5.97;2.40;;;;;;;;;;7365724;19;20400;-71
2023/10/04 10:27:23;;;;;;;6.85;2.60;;;;;;;;;;7365270;19;20035;-71
2023/10/04 10:29:50;;;;;;;7.43;2.85;;;;;;;;;;7364149;19;20514;-71
2023/10/04 10:32:15;;;;;;;5.55;2.35;;;;;;;;;;7386563;19;20022;-71
2023/10/04 10:34:42;;;;;;;7.95;2.88;;;;;;;;;;7363002;19;20377;-71
2023/10/04 10:37:09;;;;;;;6.15;2.50;;;;;;;;;;7363026;19;20082;-71
2023/10/04 10:39:44;;;;;;;9.50;2.95;;;;;;;;;;7365258;19;20477;-71
2023/10/04 10:42:11;;;;;;;8.32;3.22;;;;;;;;;;7362950;19;20480;-71
2023/10/04 10:44:39;;;;;;;8.00;2.83;;;;;;;;;;7384789;19;20010;-71
2023/10/04 10:47:21;;;;;;;8.45;2.72;;;;;;;;;;7364223;19;20043;-71
2023/10/04 10:49:58;;;;;;;7.63;3.00;;;;;;;;;;7362827;19;20012;-71
2023/10/04 10:52:39;;;;;;;8.73;3.00;;;;;;;;;;7360945;19;20010;-71
2023/10/04 10:55:27;;;;;;;6.35;2.33;;;;;;;;;;7364990;19;20014;-71
2023/10/04 10:57:57;;;;;;;6.38;2.63;;;;;;;;;;7361196;19;20033;-70
2023/10/04 11:00:23;;;;;;;10.43;2.92;;;;;;;;;;7364018;19;20066;-69
2023/10/04 11:02:53;;;;;;;5.45;2.65;;;;;;;;;;7360848;19;20699;-68
2023/10/04 11:05:20;;;;;;;7.35;2.70;;;;;;;;;;7385126;19;20671;-68
2023/10/04 11:07:48;;;;;;;7.97;2.97;;;;;;;;;;7363042;19;20055;-68
2023/10/04 11:10:17;;;;;;;9.38;2.45;;;;;;;;;;7368984;19;20007;-70
2023/10/04 11:12:44;;;;;;;6.20;2.60;;;;;;;;;;7369431;19;20365;-71
2023/10/04 11:15:10;;;;;;;5.63;2.28;;;;;;;;;;7371794;19;20217;-70
2023/10/04 11:17:37;;;;;;;6.88;2.85;;;;;;;;;;7393043;19;20010;-68
2023/10/04 11:20:11;;;;;;;7.43;2.50;;;;;;;;;;7369167;19;20006;-69
2023/10/04 11:22:40;;;;;;;7.50;2.67;;;;;;;;;;7367710;19;20021;-70
2023/10/04 11:25:08;;;;;;;6.97;2.58;;;;;;;;;;7371598;19;20002;-65
2023/10/04 11:27:35;;;;;;;7.28;2.78;;;;;;;;;;7371843;19;20009;-67
2023/10/04 11:30:01;;;;;;;6.45;2.47;;;;;;;;;;7371353;19;20014;-69
2023/10/04 11:32:28;;;;;;;8.15;2.85;;;;;;;;;;7391342;19;20006;-69
2023/10/04 11:34:55;;;;;;;7.72;2.92;;;;;;;;;;7371545;19;20002;-71
2023/10/04 11:37:21;;;;;;;7.93;2.92;;;;;;;;;;7371428;19;20486;-70
2023/10/04 11:39:46;;;;;;;7.53;2.97;;;;;;;;;;7370906;19;20207;-68
2023/10/04 11:42:19;;;;;;;6.82;3.08;;;;;;;;;;7370437;19;20370;-69
2023/10/04 11:44:45;;;;;;;7.47;2.20;;;;;;;;;;7372098;19;20323;-71
2023/10/04 11:47:11;;;;;;;8.18;2.50;;;;;;;;;;7393851;19;20009;-70
2023/10/04 11:49:38;;;;;;;6.80;2.60;;;;;;;;;;7368096;19;20783;-69
2023/10/04 11:52:05;;;;;;;7.30;2.80;;;;;;;;;;7368640;19;20433;-69
2023/10/04 11:54:36;;;;;;;7.80;2.28;;;;;;;;;;7368514;19;20010;-71
2023/10/04 11:57:03;;;;;;;9.40;2.78;;;;;;;;;;7369630;19;19999;-69
2023/10/04 11:59:30;;;;;;;8.05;2.60;;;;;;;;;;7392147;19;20397;-69
2023/10/04 12:01:55;;;;;;;9.23;2.75;;;;;;;;;;7367380;19;20010;-69
2023/10/04 12:04:21;;;;;;;7.13;3.15;;;;;;;;;;7368949;19;20018;-69
2023/10/04 12:06:57;;;;;;;6.40;2.80;;;;;;;;;;7369142;19;20031;-70
2023/10/04 12:09:23;;;;;;;8.93;2.65;;;;;;;;;;7368474;19;20492;-70
2023/10/04 12:11:49;;;;;;;9.15;3.33;;;;;;;;;;7367527;19;19999;-69
2023/10/04 12:14:15;;;;;;;7.47;3.20;;;;;;;;;;7391028;19;20095;-70
2023/10/04 12:16:42;;;;;;;6.85;2.88;;;;;;;;;;7369011;19;20039;-70
2023/10/04 12:19:07;;;;;;;7.35;3.17;;;;;;;;;;7367843;19;20014;-69
2023/10/04 12:21:35;;;;;;;7.30;2.88;;;;;;;;;;7367279;19;20010;-70
2023/10/04 12:24:02;;;;;;;9.80;2.92;;;;;;;;;;7368330;19;20162;-71
2023/10/04 12:26:27;;;;;;;6.38;2.95;;;;;;;;;;7391604;19;20003;-71
2023/10/04 12:28:52;;;;;;;7.47;2.90;;;;;;;;;;7368897;19;20013;-73
2023/10/04 12:31:18;;;;;;;9.82;3.53;;;;;;;;;;7369471;19;20006;-72
2023/10/04 12:33:43;;;;;;;7.57;2.00;;;;;;;;;;7366409;19;19998;-70
2023/10/04 12:36:09;;;;;;;8.13;3.38;;;;;;;;;;7367803;19;20528;-71
2023/10/04 12:38:34;;;;;;;7.10;3.00;;;;;;;;;;7388046;19;20014;-71
2023/10/04 12:41:00;;;;;;;8.68;3.35;;;;;;;;;;7367632;19;20045;-70
2023/10/04 12:43:25;;;;;;;9.80;4.25;;;;;;;;;;7367671;19;20002;-71
2023/10/04 12:45:53;;;;;;;7.43;3.30;;;;;;;;;;7367997;19;20007;-70
2023/10/04 12:48:19;;;;;;;7.57;2.80;;;;;;;;;;7368425;19;20465;-70
2023/10/04 12:50:48;;;;;;;6.95;3.22;;;;;;;;;;7370417;19;20074;-72
2023/10/04 12:53:15;;;;;;;9.35;3.38;;;;;;;;;;7387566;19;20006;-72
2023/10/04 12:55:47;;;;;;;10.88;3.42;;;;;;;;;;7368834;19;20376;-72
2023/10/04 12:58:13;;;;;;;7.82;3.38;;;;;;;;;;7367631;19;20077;-70
2023/10/04 13:00:41;;;;;;;9.57;3.55;;;;;;;;;;7368708;19;20018;-72
2023/10/04 13:03:07;;;;;;;8.77;3.45;;;;;;;;;;7366430;19;20034;-71
2023/10/04 13:05:37;;;;;;;8.27;3.50;;;;;;;;;;7390290;19;20396;-72
2023/10/04 13:08:03;;;;;;;9.82;3.67;;;;;;;;;;7367901;19;20002;-73
2023/10/04 13:10:29;;;;;;;12.18;3.85;;;;;;;;;;7368999;19;20013;-71
2023/10/04 13:12:54;;;;;;;9.18;3.70;;;;;;;;;;7366241;19;20162;-71
2023/10/04 13:15:19;;;;;;;9.18;3.45;;;;;;;;;;7369628;19;20034;-70
2023/10/04 13:17:45;;;;;;;10.02;3.63;;;;;;;;;;7368155;19;20005;-70
2023/10/04 13:20:25;;;;;;;9.13;3.45;;;;;;;;;;7388740;19;20002;-72
2023/10/04 13:22:51;;;;;;;13.70;4.07;;;;;;;;;;7365257;19;20006;-70
2023/10/04 13:25:17;;;;;;;12.07;4.13;;;;;;;;;;7368193;19;20426;-70
2023/10/04 13:27:43;;;;;;;10.25;3.45;;;;;;;;;;7367985;19;20491;-70
2023/10/04 13:30:09;;;;;;;9.40;3.70;;;;;;;;;;7366897;19;20010;-70
2023/10/04 13:32:35;;;;;;;8.93;3.75;;;;;;;;;;7384363;19;20006;-71
2023/10/04 13:35:01;;;;;;;8.57;3.72;;;;;;;;;;7353746;19;20025;-70
2023/10/04 13:37:27;;;;;;;10.18;3.42;;;;;;;;;;7363915;19;20423;-70
2023/10/04 13:39:54;;;;;;;9.32;3.92;;;;;;;;;;7364774;19;20003;-71
2023/10/04 13:42:19;;;;;;;9.98;3.95;;;;;;;;;;7362178;19;20002;-70
2023/10/04 13:44:45;;;;;;;8.50;3.17;;;;;;;;;;7361055;19;20340;-70
2023/10/04 13:47:11;;;;;;;9.40;3.50;;;;;;;;;;7384252;19;20014;-71
2023/10/04 13:49:37;;;;;;;9.15;3.40;;;;;;;;;;7361742;19;20601;-70
2023/10/04 13:52:03;;;;;;;9.13;3.67;;;;;;;;;;7362965;19;20018;-70
2023/10/04 13:54:31;;;;;;;10.20;3.17;;;;;;;;;;7364634;19;20066;-69
2023/10/04 13:56:57;;;;;;;8.77;3.25;;;;;;;;;;7364937;19;20045;-68
2023/10/04 13:59:23;;;;;;;12.68;3.30;;;;;;;;;;7385638;19;20006;-69
2023/10/04 14:01:49;;;;;;;11.13;3.35;;;;;;;;;;7362404;19;20062;-69
2023/10/04 14:04:16;;;;;;;11.45;3.78;;;;;;;;;;7359972;19;20015;-69
2023/10/04 14:06:42;;;;;;;8.63;3.15;;;;;;;;;;7363426;19;20011;-69
2023/10/04 14:09:11;;;;;;;10.48;3.42;;;;;;;;;;7363785;19;20445;-69
2023/10/04 14:11:38;;;;;;;7.95;3.50;;;;;;;;;;7385389;19;20014;-69
2023/10/04 14:14:07;;;;;;;11.25;5.38;;;;;;;;;;7360378;19;20031;-70
2023/10/04 14:16:34;;;;;;;9.15;3.92;;;;;;;;;;7363885;19;20026;-70
2023/10/04 14:18:59;;;;;;;9.25;3.72;;;;;;;;;;7361036;19;20014;-71
2023/10/04 14:21:24;;;;;;;11.70;3.90;;;;;;;;;;7362431;19;20007;-71
2023/10/04 14:23:50;;;;;;;7.68;3.60;;;;;;;;;;7361609;19;19998;-71
2023/10/04 14:26:17;;;;;;;8.68;3.65;;;;;;;;;;7384734;19;20009;-70
2023/10/04 14:28:43;;;;;;;7.18;3.47;;;;;;;;;;7364173;19;20005;-69
2023/10/04 14:31:11;;;;;;;6.82;3.30;;;;;;;;;;7362261;19;20007;-69
2023/10/04 14:33:38;;;;;;;9.32;3.33;;;;;;;;;;7359920;19;20113;-69
2023/10/04 14:36:03;;;;;;;9.45;3.45;;;;;;;;;;7361615;19;20006;-70
2023/10/04 14:38:29;;;;;;;8.80;3.25;;;;;;;;;;7383534;19;20013;-70
2023/10/04 14:40:55;;;;;;;7.38;3.05;;;;;;;;;;7362672;19;20011;-69
2023/10/04 14:43:20;;;;;;;8.50;3.67;;;;;;;;;;7364727;19;20007;-70
2023/10/04 14:45:47;;;;;;;7.57;3.38;;;;;;;;;;7371415;19;20011;-71
2023/10/04 14:48:13;;;;;;;12.02;3.88;;;;;;;;;;7368606;19;20471;-69